PWSweather.com
Personal Weather Stations
Station Observations
21805
AntwerpBE

AntwerpBE

Lat: 51.28072820000001, Lon: 4.420431000000008

Elevation: 12

Station Type: Davis VP Pro II

http://www.akker.be

Latest ConditionsUpdated 9:26:15 AM GMT+01:01 Thursday, Dec 12, 2019
Currently Today's Max Today's Min Today's Average
Temperature 37.8°F3.2°C 42.9°F6.1°C 37.8°F3.2°C 40.3°F4.6°C
Dew Point 34.6°F1.4°C 38.7°F3.7°C 34.4°F1.3°C 36.5°F2.5°C
Winds 4.6 mph S7.4 kmh S 5.8 mph -9.3 kmh - - 3.6 mph 5.8 kmh
Wind Gusts 10.3 mph16.6 kmh 13.8 mph22.2 kmh - -
Humidity 88% 90% 84% 86%
Pressure 29.61 in1002.7 mb 29.63 in1003.4 mb 29.61 in1002.7 mb -
Hour Temp Dew Point Humidity Winds Wind Gusts Pressure Precip Precip Rate Daily Precip Total
09:26 AM 37.8°F3.2°C 34.6°F1.4°C 88% 4.6 mph S7.4 kmh S 10.3 mph16.6 kmh 29.61 in1002.7 mb - 0.00 in0.0 mm 0.00 in0.0 mm
09:20 AM 37.8°F3.2°C 34.6°F1.4°C 88% 3.4 mph S5.5 kmh S 5.8 mph9.3 kmh 29.61 in1002.7 mb - 0.00 in0.0 mm 0.00 in0.0 mm
09:15 AM 37.8°F3.2°C 34.6°F1.4°C 88% 3.4 mph S5.5 kmh S 9.2 mph14.8 kmh 29.61 in1002.7 mb - 0.00 in0.0 mm 0.00 in0.0 mm
09:09 AM 37.8°F3.2°C 34.6°F1.4°C 88% 4.6 mph S7.4 kmh S 6.9 mph11.1 kmh 29.61 in1002.7 mb - 0.00 in0.0 mm 0.00 in0.0 mm
09:03 AM 37.9°F3.3°C 34.7°F1.5°C 88% 4.6 mph S7.4 kmh S 6.9 mph11.1 kmh 29.61 in1002.7 mb - 0.00 in0.0 mm 0.00 in0.0 mm
08:58 AM 37.9°F3.3°C 34.4°F1.3°C 87% 4.6 mph SSW7.4 kmh SSW 10.3 mph16.6 kmh 29.61 in1002.7 mb - 0.00 in0.0 mm 0.00 in0.0 mm
08:52 AM 38.0°F3.3°C 34.8°F1.6°C 88% 3.4 mph SSW5.5 kmh SSW 4.6 mph7.4 kmh 29.61 in1002.7 mb - 0.00 in0.0 mm 0.00 in0.0 mm
08:46 AM 38.0°F3.3°C 34.5°F1.4°C 87% 5.8 mph SSW9.3 kmh SSW 9.2 mph14.8 kmh 29.61 in1002.7 mb - 0.00 in0.0 mm 0.00 in0.0 mm
08:41 AM 38.0°F3.3°C 34.8°F1.6°C 88% 5.8 mph SSW9.3 kmh SSW 9.2 mph14.8 kmh 29.61 in1002.7 mb - 0.00 in0.0 mm 0.00 in0.0 mm
08:35 AM 38.1°F3.4°C 34.6°F1.4°C 87% 4.6 mph SSW7.4 kmh SSW 10.3 mph16.6 kmh 29.61 in1002.7 mb - 0.00 in0.0 mm 0.00 in0.0 mm
08:30 AM 38.1°F3.4°C 34.6°F1.4°C 87% 4.6 mph SSW7.4 kmh SSW 8.0 mph12.9 kmh 29.61 in1002.7 mb - 0.00 in0.0 mm 0.00 in0.0 mm
08:24 AM 38.2°F3.4°C 34.7°F1.5°C 87% 4.6 mph SSW7.4 kmh SSW 9.2 mph14.8 kmh 29.61 in1002.7 mb - 0.00 in0.0 mm 0.00 in0.0 mm
08:18 AM 38.2°F3.4°C 34.7°F1.5°C 87% 4.6 mph SSW7.4 kmh SSW 11.5 mph18.5 kmh 29.61 in1002.7 mb - 0.00 in0.0 mm 0.00 in0.0 mm
08:13 AM 38.1°F3.4°C 34.6°F1.4°C 87% 4.6 mph SSW7.4 kmh SSW 8.0 mph12.9 kmh 29.61 in1002.7 mb - 0.00 in0.0 mm 0.00 in0.0 mm
08:07 AM 38.1°F3.4°C 34.6°F1.4°C 87% 4.6 mph S7.4 kmh S 8.0 mph12.9 kmh 29.61 in1002.7 mb - 0.00 in0.0 mm 0.00 in0.0 mm
08:01 AM 38.2°F3.4°C 34.7°F1.5°C 87% 2.3 mph SW3.7 kmh SW 3.4 mph5.5 kmh 29.62 in1003.0 mb - 0.00 in0.0 mm 0.00 in0.0 mm
07:56 AM 38.3°F3.5°C 34.8°F1.6°C 87% 3.4 mph SSW5.5 kmh SSW 4.6 mph7.4 kmh 29.62 in1003.0 mb - 0.00 in0.0 mm 0.00 in0.0 mm
07:50 AM 38.4°F3.6°C 34.9°F1.6°C 87% 2.3 mph SSW3.7 kmh SSW 5.8 mph9.3 kmh 29.62 in1003.0 mb - 0.00 in0.0 mm 0.00 in0.0 mm
07:45 AM 38.4°F3.6°C 34.9°F1.6°C 87% 3.4 mph SSW5.5 kmh SSW 5.8 mph9.3 kmh 29.62 in1003.0 mb - 0.00 in0.0 mm 0.00 in0.0 mm
07:39 AM 38.6°F3.7°C 35.1°F1.7°C 87% 2.3 mph SSW3.7 kmh SSW 5.8 mph9.3 kmh 29.62 in1003.0 mb - 0.00 in0.0 mm 0.00 in0.0 mm
07:33 AM 38.6°F3.7°C 35.1°F1.7°C 87% 3.4 mph SSW5.5 kmh SSW 5.8 mph9.3 kmh 29.62 in1003.0 mb - 0.00 in0.0 mm 0.00 in0.0 mm
07:28 AM 38.8°F3.8°C 35.3°F1.8°C 87% 2.3 mph SSW3.7 kmh SSW 8.0 mph12.9 kmh 29.62 in1003.0 mb - 0.00 in0.0 mm 0.00 in0.0 mm
07:22 AM 38.8°F3.8°C 36.1°F2.3°C 90% 3.4 mph SSW5.5 kmh SSW 4.6 mph7.4 kmh 29.62 in1003.0 mb - 0.00 in0.0 mm 0.00 in0.0 mm
07:16 AM 38.9°F3.8°C 35.4°F1.9°C 87% 2.3 mph SW3.7 kmh SW 6.9 mph11.1 kmh 29.62 in1003.0 mb - 0.00 in0.0 mm 0.00 in0.0 mm
07:11 AM 38.9°F3.8°C 35.4°F1.9°C 87% 2.3 mph SSW3.7 kmh SSW 5.8 mph9.3 kmh 29.62 in1003.0 mb - 0.00 in0.0 mm 0.00 in0.0 mm
07:05 AM 39.0°F3.9°C 35.5°F1.9°C 87% 3.4 mph S5.5 kmh S 6.9 mph11.1 kmh 29.62 in1003.0 mb - 0.00 in0.0 mm 0.00 in0.0 mm
07:00 AM 39.1°F3.9°C 35.5°F1.9°C 87% 3.4 mph SSW5.5 kmh SSW 5.8 mph9.3 kmh 29.62 in1003.0 mb - 0.00 in0.0 mm 0.00 in0.0 mm
06:54 AM 39.1°F3.9°C 35.6°F2.0°C 87% 3.4 mph SSW5.5 kmh SSW 5.8 mph9.3 kmh 29.63 in1003.4 mb - 0.00 in0.0 mm 0.00 in0.0 mm
06:48 AM 39.1°F3.9°C 35.6°F2.0°C 87% 3.4 mph SSW5.5 kmh SSW 5.8 mph9.3 kmh 29.63 in1003.4 mb - 0.00 in0.0 mm 0.00 in0.0 mm
06:43 AM 39.3°F4.1°C 35.8°F2.1°C 87% 2.3 mph SW3.7 kmh SW 5.8 mph9.3 kmh 29.63 in1003.4 mb - 0.00 in0.0 mm 0.00 in0.0 mm
06:37 AM 39.3°F4.1°C 35.8°F2.1°C 87% 2.3 mph S3.7 kmh S 4.6 mph7.4 kmh 29.63 in1003.4 mb - 0.00 in0.0 mm 0.00 in0.0 mm
06:31 AM 39.5°F4.2°C 35.9°F2.2°C 87% 2.3 mph SW3.7 kmh SW 6.9 mph11.1 kmh 29.63 in1003.4 mb - 0.00 in0.0 mm 0.00 in0.0 mm
06:26 AM 39.5°F4.2°C 36.0°F2.2°C 87% 3.4 mph SSW5.5 kmh SSW 10.3 mph16.6 kmh 29.62 in1003.0 mb - 0.00 in0.0 mm 0.00 in0.0 mm
06:20 AM 39.6°F4.2°C 36.0°F2.2°C 87% 3.4 mph SSW5.5 kmh SSW 6.9 mph11.1 kmh 29.62 in1003.0 mb - 0.00 in0.0 mm 0.00 in0.0 mm
06:15 AM 39.6°F4.2°C 36.0°F2.2°C 87% 4.6 mph SSW7.4 kmh SSW 9.2 mph14.8 kmh 29.62 in1003.0 mb - 0.00 in0.0 mm 0.00 in0.0 mm
06:09 AM 39.7°F4.3°C 36.1°F2.3°C 87% 3.4 mph SSW5.5 kmh SSW 5.8 mph9.3 kmh 29.62 in1003.0 mb - 0.00 in0.0 mm 0.00 in0.0 mm
06:03 AM 39.7°F4.3°C 36.1°F2.3°C 87% 3.4 mph SSW5.5 kmh SSW 6.9 mph11.1 kmh 29.62 in1003.0 mb - 0.00 in0.0 mm 0.00 in0.0 mm
05:58 AM 39.8°F4.3°C 36.0°F2.2°C 86% 3.4 mph SSW5.5 kmh SSW 6.9 mph11.1 kmh 29.62 in1003.0 mb - 0.00 in0.0 mm 0.00 in0.0 mm
05:52 AM 39.9°F4.4°C 36.1°F2.3°C 86% 5.8 mph SSW9.3 kmh SSW 11.5 mph18.5 kmh 29.62 in1003.0 mb - 0.00 in0.0 mm 0.00 in0.0 mm
05:46 AM 40.1°F4.5°C 36.2°F2.3°C 86% 5.8 mph SSW9.3 kmh SSW 10.3 mph16.6 kmh 29.62 in1003.0 mb - 0.00 in0.0 mm 0.00 in0.0 mm
05:41 AM 40.1°F4.5°C 36.2°F2.3°C 86% 3.4 mph SSW5.5 kmh SSW 6.9 mph11.1 kmh 29.62 in1003.0 mb - 0.00 in0.0 mm 0.00 in0.0 mm
05:35 AM 40.3°F4.6°C 36.4°F2.4°C 86% 2.3 mph SSW3.7 kmh SSW 5.8 mph9.3 kmh 29.62 in1003.0 mb - 0.00 in0.0 mm 0.00 in0.0 mm
05:30 AM 40.3°F4.6°C 36.4°F2.4°C 86% 2.3 mph SW3.7 kmh SW 5.8 mph9.3 kmh 29.62 in1003.0 mb - 0.00 in0.0 mm 0.00 in0.0 mm
05:24 AM 40.5°F4.7°C 36.6°F2.6°C 86% 2.3 mph SW3.7 kmh SW 5.8 mph9.3 kmh 29.62 in1003.0 mb - 0.00 in0.0 mm 0.00 in0.0 mm
05:18 AM 40.5°F4.7°C 36.6°F2.6°C 86% 3.4 mph SSW5.5 kmh SSW 8.0 mph12.9 kmh 29.62 in1003.0 mb - 0.00 in0.0 mm 0.00 in0.0 mm
05:13 AM 40.6°F4.8°C 36.7°F2.6°C 86% 3.4 mph SW5.5 kmh SW 9.2 mph14.8 kmh 29.62 in1003.0 mb - 0.00 in0.0 mm 0.00 in0.0 mm
05:07 AM 40.6°F4.8°C 36.7°F2.6°C 86% 3.4 mph SW5.5 kmh SW 4.6 mph7.4 kmh 29.63 in1003.4 mb - 0.00 in0.0 mm 0.00 in0.0 mm
05:01 AM 40.6°F4.8°C 36.7°F2.6°C 86% 2.3 mph S3.7 kmh S 8.0 mph12.9 kmh 29.63 in1003.4 mb - 0.00 in0.0 mm 0.00 in0.0 mm
04:56 AM 40.6°F4.8°C 36.7°F2.6°C 86% 3.4 mph SSW5.5 kmh SSW 6.9 mph11.1 kmh 29.63 in1003.4 mb - 0.00 in0.0 mm 0.00 in0.0 mm
04:50 AM 40.6°F4.8°C 36.7°F2.6°C 86% 2.3 mph SW3.7 kmh SW 9.2 mph14.8 kmh 29.62 in1003.0 mb - 0.00 in0.0 mm 0.00 in0.0 mm
04:45 AM 40.6°F4.8°C 36.7°F2.6°C 86% 3.4 mph SSW5.5 kmh SSW 5.8 mph9.3 kmh 29.62 in1003.0 mb - 0.00 in0.0 mm 0.00 in0.0 mm
04:39 AM 40.6°F4.8°C 36.8°F2.7°C 86% 4.6 mph SSW7.4 kmh SSW 8.0 mph12.9 kmh 29.63 in1003.4 mb - 0.00 in0.0 mm 0.00 in0.0 mm
04:33 AM 40.6°F4.8°C 36.8°F2.7°C 86% 3.4 mph SSW5.5 kmh SSW 6.9 mph11.1 kmh 29.63 in1003.4 mb - 0.00 in0.0 mm 0.00 in0.0 mm
04:28 AM 40.6°F4.8°C 36.8°F2.7°C 86% 4.6 mph SW7.4 kmh SW 10.3 mph16.6 kmh 29.63 in1003.4 mb - 0.00 in0.0 mm 0.00 in0.0 mm
04:22 AM 40.6°F4.8°C 36.7°F2.6°C 86% 4.6 mph SSW7.4 kmh SSW 9.2 mph14.8 kmh 29.63 in1003.4 mb - 0.00 in0.0 mm 0.00 in0.0 mm
04:16 AM 40.6°F4.8°C 36.7°F2.6°C 86% 3.4 mph SSW5.5 kmh SSW 10.3 mph16.6 kmh 29.63 in1003.4 mb - 0.00 in0.0 mm 0.00 in0.0 mm
04:11 AM 40.6°F4.8°C 36.7°F2.6°C 86% 4.6 mph SW7.4 kmh SW 9.2 mph14.8 kmh 29.63 in1003.4 mb - 0.00 in0.0 mm 0.00 in0.0 mm
04:05 AM 40.6°F4.8°C 36.7°F2.6°C 86% 3.4 mph SSW5.5 kmh SSW 8.0 mph12.9 kmh 29.63 in1003.4 mb - 0.00 in0.0 mm 0.00 in0.0 mm
04:00 AM 40.6°F4.8°C 36.7°F2.6°C 86% 3.4 mph S5.5 kmh S 10.3 mph16.6 kmh 29.63 in1003.4 mb - 0.00 in0.0 mm 0.00 in0.0 mm
03:54 AM 40.5°F4.7°C 36.7°F2.6°C 86% 3.4 mph SSW5.5 kmh SSW 8.0 mph12.9 kmh 29.63 in1003.4 mb - 0.00 in0.0 mm 0.00 in0.0 mm
03:48 AM 40.5°F4.7°C 36.6°F2.6°C 86% 3.4 mph SSW5.5 kmh SSW 8.0 mph12.9 kmh 29.63 in1003.4 mb - 0.00 in0.0 mm 0.00 in0.0 mm
03:43 AM 40.6°F4.8°C 36.7°F2.6°C 86% 3.4 mph SSW5.5 kmh SSW 6.9 mph11.1 kmh 29.63 in1003.4 mb - 0.00 in0.0 mm 0.00 in0.0 mm
03:37 AM 40.6°F4.8°C 36.7°F2.6°C 86% 3.4 mph SSW5.5 kmh SSW 5.8 mph9.3 kmh 29.63 in1003.4 mb - 0.00 in0.0 mm 0.00 in0.0 mm
03:31 AM 40.7°F4.8°C 36.8°F2.7°C 86% 3.4 mph SSW5.5 kmh SSW 5.8 mph9.3 kmh 29.63 in1003.4 mb - 0.00 in0.0 mm 0.00 in0.0 mm
03:26 AM 40.7°F4.8°C 36.8°F2.7°C 86% 3.4 mph SSW5.5 kmh SSW 9.2 mph14.8 kmh 29.63 in1003.4 mb - 0.00 in0.0 mm 0.00 in0.0 mm
03:20 AM 40.8°F4.9°C 37.0°F2.8°C 86% 3.4 mph SSW5.5 kmh SSW 6.9 mph11.1 kmh 29.63 in1003.4 mb - 0.00 in0.0 mm 0.00 in0.0 mm
03:15 AM 40.9°F4.9°C 37.0°F2.8°C 86% 3.4 mph SW5.5 kmh SW 6.9 mph11.1 kmh 29.63 in1003.4 mb - 0.00 in0.0 mm 0.00 in0.0 mm
03:09 AM 40.9°F4.9°C 37.0°F2.8°C 86% 4.6 mph SSW7.4 kmh SSW 10.3 mph16.6 kmh 29.62 in1003.0 mb - 0.00 in0.0 mm 0.00 in0.0 mm
03:03 AM 41.0°F5.0°C 37.1°F2.8°C 86% 3.4 mph SSW5.5 kmh SSW 6.9 mph11.1 kmh 29.62 in1003.0 mb - 0.00 in0.0 mm 0.00 in0.0 mm
02:58 AM 41.0°F5.0°C 37.1°F2.8°C 86% 3.4 mph SSW5.5 kmh SSW 11.5 mph18.5 kmh 29.62 in1003.0 mb - 0.00 in0.0 mm 0.00 in0.0 mm
02:52 AM 41.1°F5.1°C 37.2°F2.9°C 86% 3.4 mph SSW5.5 kmh SSW 5.8 mph9.3 kmh 29.62 in1003.0 mb - 0.00 in0.0 mm 0.00 in0.0 mm
02:46 AM 41.2°F5.1°C 37.3°F2.9°C 86% 3.4 mph SSW5.5 kmh SSW 9.2 mph14.8 kmh 29.62 in1003.0 mb - 0.00 in0.0 mm 0.00 in0.0 mm
02:41 AM 41.2°F5.1°C 37.3°F2.9°C 86% 3.4 mph SSW5.5 kmh SSW 5.8 mph9.3 kmh 29.62 in1003.0 mb - 0.00 in0.0 mm 0.00 in0.0 mm
02:35 AM 41.3°F5.2°C 37.1°F2.8°C 85% 3.4 mph SW5.5 kmh SW 6.9 mph11.1 kmh 29.62 in1003.0 mb - 0.00 in0.0 mm 0.00 in0.0 mm
02:30 AM 41.4°F5.2°C 37.2°F2.9°C 85% 3.4 mph SSW5.5 kmh SSW 4.6 mph7.4 kmh 29.62 in1003.0 mb - 0.00 in0.0 mm 0.00 in0.0 mm
02:24 AM 41.5°F5.3°C 37.3°F2.9°C 85% 3.4 mph S5.5 kmh S 6.9 mph11.1 kmh 29.62 in1003.0 mb - 0.00 in0.0 mm 0.00 in0.0 mm
02:18 AM 41.5°F5.3°C 37.4°F3.0°C 85% 3.4 mph SSW5.5 kmh SSW 6.9 mph11.1 kmh 29.62 in1003.0 mb - 0.00 in0.0 mm 0.00 in0.0 mm
02:13 AM 41.6°F5.3°C 37.4°F3.0°C 85% 3.4 mph SSW5.5 kmh SSW 6.9 mph11.1 kmh 29.62 in1003.0 mb - 0.00 in0.0 mm 0.00 in0.0 mm
02:07 AM 41.6°F5.3°C 37.5°F3.1°C 85% 4.6 mph SSW7.4 kmh SSW 6.9 mph11.1 kmh 29.62 in1003.0 mb - 0.00 in0.0 mm 0.00 in0.0 mm
02:01 AM 41.8°F5.4°C 37.6°F3.1°C 85% 2.3 mph SSW3.7 kmh SSW 6.9 mph11.1 kmh 29.62 in1003.0 mb - 0.00 in0.0 mm 0.00 in0.0 mm
01:56 AM 41.8°F5.4°C 37.6°F3.1°C 85% 4.6 mph SSW7.4 kmh SSW 10.3 mph16.6 kmh 29.62 in1003.0 mb - 0.00 in0.0 mm 0.00 in0.0 mm
01:50 AM 41.9°F5.5°C 37.7°F3.2°C 85% 3.4 mph SSW5.5 kmh SSW 8.0 mph12.9 kmh 29.62 in1003.0 mb - 0.00 in0.0 mm 0.00 in0.0 mm
01:45 AM 42.0°F5.6°C 37.8°F3.2°C 85% 3.4 mph SSW5.5 kmh SSW 6.9 mph11.1 kmh 29.62 in1003.0 mb - 0.00 in0.0 mm 0.00 in0.0 mm
01:39 AM 42.2°F5.7°C 37.7°F3.2°C 84% 3.4 mph SSW5.5 kmh SSW 4.6 mph7.4 kmh 29.62 in1003.0 mb - 0.00 in0.0 mm 0.00 in0.0 mm
01:33 AM 42.2°F5.7°C 37.7°F3.2°C 84% 3.4 mph SSW5.5 kmh SSW 4.6 mph7.4 kmh 29.62 in1003.0 mb - 0.00 in0.0 mm 0.00 in0.0 mm
01:28 AM 42.4°F5.8°C 37.9°F3.3°C 84% 2.3 mph SW3.7 kmh SW 4.6 mph7.4 kmh 29.62 in1003.0 mb - 0.00 in0.0 mm 0.00 in0.0 mm
01:22 AM 42.4°F5.8°C 37.9°F3.3°C 84% 3.4 mph SSW5.5 kmh SSW 5.8 mph9.3 kmh 29.62 in1003.0 mb - 0.00 in0.0 mm 0.00 in0.0 mm
01:16 AM 42.5°F5.8°C 38.3°F3.5°C 85% 3.4 mph SSW5.5 kmh SSW 8.0 mph12.9 kmh 29.62 in1003.0 mb - 0.00 in0.0 mm 0.00 in0.0 mm
01:11 AM 42.5°F5.8°C 38.3°F3.5°C 85% 3.4 mph SSW5.5 kmh SSW 6.9 mph11.1 kmh 29.63 in1003.4 mb - 0.00 in0.0 mm 0.00 in0.0 mm
01:05 AM 42.4°F5.8°C 38.2°F3.4°C 85% 4.6 mph S7.4 kmh S 8.0 mph12.9 kmh 29.63 in1003.4 mb - 0.00 in0.0 mm 0.00 in0.0 mm
01:00 AM 42.3°F5.7°C 38.2°F3.4°C 85% 4.6 mph SSW7.4 kmh SSW 13.8 mph22.2 kmh 29.63 in1003.4 mb - 0.00 in0.0 mm 0.00 in0.0 mm
12:54 AM 42.3°F5.7°C 38.1°F3.4°C 85% 2.3 mph SSW3.7 kmh SSW 6.9 mph11.1 kmh 29.63 in1003.4 mb - 0.00 in0.0 mm 0.00 in0.0 mm
12:48 AM 42.3°F5.7°C 38.2°F3.4°C 85% 2.3 mph SSW3.7 kmh SSW 6.9 mph11.1 kmh 29.63 in1003.4 mb - 0.00 in0.0 mm 0.00 in0.0 mm
12:43 AM 42.5°F5.8°C 38.3°F3.5°C 85% 3.4 mph SSW5.5 kmh SSW 4.6 mph7.4 kmh 29.63 in1003.4 mb - 0.00 in0.0 mm 0.00 in0.0 mm
12:37 AM 42.5°F5.8°C 38.3°F3.5°C 85% 2.3 mph SW3.7 kmh SW 4.6 mph7.4 kmh 29.63 in1003.4 mb - 0.00 in0.0 mm 0.00 in0.0 mm
12:31 AM 42.6°F5.9°C 38.4°F3.6°C 85% 3.4 mph SSW5.5 kmh SSW 5.8 mph9.3 kmh 29.63 in1003.4 mb - 0.00 in0.0 mm 0.00 in0.0 mm
12:26 AM 42.7°F5.9°C 38.5°F3.6°C 85% 3.4 mph S5.5 kmh S 6.9 mph11.1 kmh 29.63 in1003.4 mb - 0.00 in0.0 mm 0.00 in0.0 mm
12:20 AM 42.7°F5.9°C 38.5°F3.6°C 85% 5.8 mph S9.3 kmh S 9.2 mph14.8 kmh 29.63 in1003.4 mb - 0.00 in0.0 mm 0.00 in0.0 mm
12:15 AM 42.7°F5.9°C 38.5°F3.6°C 85% 3.4 mph SSW5.5 kmh SSW 11.5 mph18.5 kmh 29.63 in1003.4 mb - 0.00 in0.0 mm 0.00 in0.0 mm
12:09 AM 42.8°F6.0°C 38.6°F3.7°C 85% 4.6 mph SSW7.4 kmh SSW 6.9 mph11.1 kmh 29.63 in1003.4 mb - 0.00 in0.0 mm 0.00 in0.0 mm
12:03 AM 42.9°F6.1°C 38.7°F3.7°C 85% 4.6 mph S7.4 kmh S 8.0 mph12.9 kmh 29.63 in1003.4 mb - 0.00 in0.0 mm 0.00 in0.0 mm